Time;durP1;ratioP1;P1;durP2;ratioP2;P2;SDS_P1;SDS_P2;PMS_P1;PMS_P2;Temp;Humidity;BMP_temperature;BMP_pressure;BME280_temperature;BME280_humidity;BME280_pressure;Samples;Min_cycle;Max_cycle;Signal;HPM_P1;HPM_P2
2021/08/24 00:00:04;;;;;;;9.50;2.00;;;16.70;99.90;;;;;;5092906;28;20126;-60
2021/08/24 00:02:30;;;;;;;5.30;1.90;;;16.70;99.90;;;;;;5091238;28;20042;-60
2021/08/24 00:04:56;;;;;;;1.85;1.60;;;16.70;99.90;;;;;;5091490;28;20028;-60
2021/08/24 00:07:21;;;;;;;4.30;1.60;;;16.60;99.90;;;;;;5092023;28;20211;-60
2021/08/24 00:09:48;;;;;;;2.88;1.60;;;16.60;99.90;;;;;;5092706;28;20024;-60
2021/08/24 00:12:14;;;;;;;2.20;1.60;;;16.70;99.90;;;;;;5090812;28;20481;-60
2021/08/24 00:14:40;;;;;;;4.70;2.30;;;16.60;99.90;;;;;;5092539;28;20372;-60
2021/08/24 00:17:05;;;;;;;5.57;1.63;;;16.60;99.90;;;;;;5091505;28;20089;-60
2021/08/24 00:19:31;;;;;;;2.08;1.60;;;16.60;99.90;;;;;;5089507;28;20358;-60
2021/08/24 00:21:57;;;;;;;5.65;2.03;;;16.60;99.90;;;;;;5082187;28;20054;-60
2021/08/24 00:24:22;;;;;;;3.85;1.85;;;16.50;99.90;;;;;;5072899;28;20131;-60
2021/08/24 00:26:48;;;;;;;5.28;2.00;;;16.50;99.90;;;;;;5072772;28;20052;-60
2021/08/24 00:29:14;;;;;;;1.77;1.30;;;16.40;99.90;;;;;;5070414;28;20519;-60
2021/08/24 00:31:39;;;;;;;2.78;1.27;;;16.50;99.90;;;;;;5070986;28;20033;-60
2021/08/24 00:34:05;;;;;;;3.17;1.63;;;16.40;99.90;;;;;;5072193;28;20021;-60
2021/08/24 00:36:32;;;;;;;5.22;1.55;;;16.40;99.90;;;;;;5070092;28;20294;-60
2021/08/24 00:38:58;;;;;;;4.63;1.83;;;16.30;99.90;;;;;;5070642;28;20059;-60
2021/08/24 00:41:25;;;;;;;3.65;1.48;;;16.20;99.90;;;;;;5071197;28;20124;-60
2021/08/24 00:43:51;;;;;;;4.38;1.70;;;16.30;99.90;;;;;;5070701;28;20484;-60
2021/08/24 00:46:35;;;;;;;2.28;1.60;;;16.20;99.90;;;;;;5071242;28;20039;-62
2021/08/24 00:49:24;;;;;;;6.35;1.60;;;16.20;99.90;;;;;;5071742;28;20081;-60
2021/08/24 00:51:59;;;;;;;2.35;1.45;;;16.20;99.90;;;;;;5070331;28;20054;-60
2021/08/24 00:54:26;;;;;;;3.83;1.42;;;16.10;99.90;;;;;;5071265;28;20043;-60
2021/08/24 00:57:07;;;;;;;2.63;1.92;;;16.10;99.90;;;;;;5071720;28;20032;-60
2021/08/24 00:59:33;;;;;;;3.30;1.35;;;16.10;99.90;;;;;;5069600;28;20082;-59
2021/08/24 01:01:59;;;;;;;3.15;1.58;;;16.00;99.90;;;;;;5071194;28;20044;-61
2021/08/24 01:04:25;;;;;;;2.38;1.60;;;16.00;99.90;;;;;;5070581;28;20021;-60
2021/08/24 01:07:02;;;;;;;2.90;1.25;;;16.00;99.90;;;;;;5069896;28;20036;-60
2021/08/24 01:09:53;;;;;;;4.40;1.40;;;16.00;99.90;;;;;;5070643;28;20020;-60
2021/08/24 01:12:48;;;;;;;4.03;1.48;;;16.10;99.90;;;;;;5069563;28;20543;-60
2021/08/24 01:15:25;;;;;;;3.55;1.77;;;16.00;99.90;;;;;;5069820;28;20542;-71
2021/08/24 01:18:12;;;;;;;2.38;1.40;;;15.90;99.90;;;;;;5070126;28;20415;-60
2021/08/24 01:20:41;;;;;;;4.78;1.48;;;15.80;99.90;;;;;;5070944;28;20469;-60
2021/08/24 01:23:15;;;;;;;6.38;2.55;;;15.90;99.90;;;;;;5070949;28;20041;-60
2021/08/24 01:25:55;;;;;;;2.38;1.38;;;15.90;99.90;;;;;;5071167;28;20527;-60
2021/08/24 01:28:33;;;;;;;4.15;1.58;;;15.90;99.90;;;;;;5070604;28;20017;-60
2021/08/24 01:31:20;;;;;;;3.45;1.33;;;15.90;99.90;;;;;;5070805;28;20050;-60
2021/08/24 01:34:24;;;;;;;2.72;1.50;;;15.90;99.90;;;;;;5069575;28;20032;-60
2021/08/24 01:37:06;;;;;;;7.55;1.75;;;15.90;99.90;;;;;;5071001;28;20024;-60
2021/08/24 01:39:43;;;;;;;3.10;1.17;;;15.80;99.90;;;;;;5069830;28;20048;-60
2021/08/24 01:42:11;;;;;;;4.03;1.77;;;15.70;99.90;;;;;;5069681;28;20119;-60
2021/08/24 01:44:51;;;;;;;9.27;3.40;;;15.70;99.90;;;;;;5068918;28;20025;-60
2021/08/24 01:47:42;;;;;;;2.67;1.60;;;15.70;99.90;;;;;;5068697;28;20119;-62
2021/08/24 01:50:11;;;;;;;3.25;1.80;;;15.60;99.90;;;;;;5069497;28;20025;-59
2021/08/24 01:52:44;;;;;;;2.10;1.60;;;15.70;99.90;;;;;;5070241;28;20045;-59
2021/08/24 01:55:15;;;;;;;4.55;1.98;;;15.70;99.90;;;;;;5071304;28;20027;-60
2021/08/24 01:57:49;;;;;;;3.08;1.65;;;15.80;99.90;;;;;;5071084;28;20451;-60
2021/08/24 02:00:16;;;;;;;5.38;1.90;;;15.60;99.90;;;;;;5070262;28;20032;-60
2021/08/24 02:02:47;;;;;;;3.53;1.70;;;15.50;99.90;;;;;;5070476;28;20036;-60
2021/08/24 02:05:13;;;;;;;;;;;15.50;99.90;;;;;;5069514;28;20056;-60
2021/08/24 02:07:39;;;;;;;3.47;1.70;;;15.40;99.90;;;;;;5068398;28;19986;-60
2021/08/24 02:10:12;;;;;;;2.65;1.40;;;15.50;99.90;;;;;;5070527;28;20024;-60
2021/08/24 02:12:40;;;;;;;6.78;1.48;;;15.40;99.90;;;;;;5069846;28;20036;-60
2021/08/24 02:15:07;;;;;;;4.45;1.85;;;15.40;99.90;;;;;;5068829;28;20032;-60
2021/08/24 02:17:34;;;;;;;2.95;1.02;;;15.40;99.90;;;;;;5069953;28;20028;-60
2021/08/24 02:20:24;;;;;;;3.28;1.45;;;15.40;99.90;;;;;;5068913;28;20036;-60
2021/08/24 02:22:55;;;;;;;3.33;1.65;;;15.30;99.90;;;;;;5068650;28;20288;-60
2021/08/24 02:25:28;;;;;;;3.10;1.90;;;15.30;99.90;;;;;;5069614;28;20047;-59
2021/08/24 02:28:06;;;;;;;4.88;1.70;;;15.30;99.90;;;;;;5070321;28;20176;-61
2021/08/24 02:30:38;;;;;;;4.25;1.40;;;15.40;99.90;;;;;;5069737;28;20374;-59
2021/08/24 02:33:04;;;;;;;;;;;15.40;99.90;;;;;;5071069;28;20445;-60
2021/08/24 02:35:40;;;;;;;4.93;2.70;;;15.30;99.90;;;;;;5069755;28;20035;-60
2021/08/24 02:38:14;;;;;;;3.85;1.73;;;15.30;99.90;;;;;;5068584;28;20029;-60
2021/08/24 02:40:57;;;;;;;2.08;1.52;;;15.30;99.90;;;;;;5068348;28;20069;-60
2021/08/24 02:43:28;;;;;;;3.33;1.80;;;15.30;99.90;;;;;;5070086;28;20470;-60
2021/08/24 02:46:13;;;;;;;9.50;1.83;;;15.20;99.90;;;;;;5070204;28;20359;-60
2021/08/24 02:48:42;;;;;;;4.72;1.95;;;15.20;99.90;;;;;;5070114;28;20044;-60
2021/08/24 02:51:11;;;;;;;4.05;1.77;;;15.20;99.90;;;;;;5074214;28;20459;-60
2021/08/24 02:53:38;;;;;;;4.03;1.52;;;15.20;99.90;;;;;;5073409;28;20052;-60
2021/08/24 02:56:04;;;;;;;3.83;1.50;;;15.00;99.90;;;;;;5074109;28;20033;-60
2021/08/24 02:58:29;;;;;;;3.83;2.00;;;15.20;99.90;;;;;;5073577;28;20094;-59
2021/08/24 03:00:55;;;;;;;4.38;1.52;;;15.20;99.90;;;;;;5074123;28;20032;-59
2021/08/24 03:03:21;;;;;;;5.95;2.00;;;15.10;99.90;;;;;;5072990;28;20112;-59
2021/08/24 03:05:46;;;;;;;5.07;1.80;;;15.00;99.90;;;;;;5073479;28;20114;-59
2021/08/24 03:08:13;;;;;;;5.55;1.42;;;15.00;99.90;;;;;;5073724;28;20032;-59
2021/08/24 03:10:44;;;;;;;2.53;1.45;;;15.00;99.90;;;;;;5073103;28;20035;-60
2021/08/24 03:13:37;;;;;;;3.33;1.35;;;14.90;99.90;;;;;;5073778;28;20017;-60
2021/08/24 03:16:16;;;;;;;4.22;1.65;;;15.00;99.90;;;;;;5073597;28;20082;-60
2021/08/24 03:18:51;;;;;;;2.00;1.48;;;15.10;99.90;;;;;;5072880;28;20478;-60
2021/08/24 03:21:20;;;;;;;4.40;1.85;;;15.00;99.90;;;;;;5071991;28;20123;-60
2021/08/24 03:23:46;;;;;;;6.95;1.88;;;15.00;99.90;;;;;;5073258;28;20036;-60
2021/08/24 03:26:14;;;;;;;2.42;1.17;;;14.90;99.90;;;;;;5073187;28;20032;-60
2021/08/24 03:28:42;;;;;;;2.80;1.50;;;14.90;99.90;;;;;;5073003;28;20168;-60
2021/08/24 03:31:08;;;;;;;9.50;2.05;;;14.90;99.90;;;;;;5073640;28;20032;-60
2021/08/24 03:33:34;;;;;;;2.40;1.45;;;14.90;99.90;;;;;;5072276;28;20021;-61
2021/08/24 03:36:00;;;;;;;5.75;1.70;;;15.00;99.90;;;;;;5073215;28;20133;-60
2021/08/24 03:38:25;;;;;;;3.80;1.55;;;14.90;99.90;;;;;;5070911;28;20045;-60
2021/08/24 03:40:51;;;;;;;2.75;1.05;;;14.90;99.90;;;;;;5071744;28;20074;-60
2021/08/24 03:43:16;;;;;;;2.38;1.40;;;14.90;99.90;;;;;;5071636;28;20385;-60
2021/08/24 03:45:42;;;;;;;5.30;1.75;;;14.90;99.90;;;;;;5071294;28;20025;-60
2021/08/24 03:48:08;;;;;;;2.90;1.55;;;14.80;99.90;;;;;;5072010;28;20025;-60
2021/08/24 03:50:34;;;;;;;1.85;1.23;;;14.80;99.90;;;;;;5071200;28;20101;-60
2021/08/24 03:53:00;;;;;;;3.75;1.45;;;14.80;99.90;;;;;;5073087;28;20067;-59
2021/08/24 03:55:26;;;;;;;2.25;1.52;;;14.70;99.90;;;;;;5072570;28;20044;-60
2021/08/24 03:57:51;;;;;;;5.18;2.08;;;14.70;99.90;;;;;;5071833;28;20029;-59
2021/08/24 04:00:17;;;;;;;4.18;1.80;;;14.80;99.90;;;;;;5071138;28;20028;-60
2021/08/24 04:02:43;;;;;;;4.32;1.92;;;14.80;99.90;;;;;;5072084;28;20638;-60
2021/08/24 04:05:10;;;;;;;2.53;1.35;;;14.70;99.90;;;;;;5073385;28;20476;-60
2021/08/24 04:07:36;;;;;;;4.03;1.58;;;14.60;99.90;;;;;;5070767;28;20464;-59
2021/08/24 04:10:02;;;;;;;2.75;1.63;;;14.70;99.90;;;;;;5072742;28;20055;-60
2021/08/24 04:12:28;;;;;;;3.22;1.65;;;14.60;99.90;;;;;;5072364;28;20439;-60
2021/08/24 04:14:55;;;;;;;3.13;1.70;;;14.60;99.90;;;;;;5072913;28;20104;-60
2021/08/24 04:17:21;;;;;;;6.40;1.67;;;14.60;99.90;;;;;;5072575;28;20036;-60
2021/08/24 04:19:47;;;;;;;2.58;1.30;;;14.70;99.90;;;;;;5072121;28;20376;-60
2021/08/24 04:22:19;;;;;;;2.63;1.67;;;14.60;99.90;;;;;;5070964;28;20045;-60
2021/08/24 04:24:44;;;;;;;3.63;1.73;;;14.70;99.90;;;;;;5072559;28;20278;-60
2021/08/24 04:27:10;;;;;;;5.35;1.58;;;14.70;99.90;;;;;;5072767;28;20028;-60
2021/08/24 04:29:36;;;;;;;4.45;1.40;;;14.70;99.90;;;;;;5072019;28;20045;-60
2021/08/24 04:32:05;;;;;;;4.35;1.65;;;14.60;99.90;;;;;;5072369;28;20424;-60
2021/08/24 04:34:31;;;;;;;2.97;1.40;;;14.60;99.90;;;;;;5071864;28;20060;-60
2021/08/24 04:36:56;;;;;;;5.63;1.67;;;14.60;99.90;;;;;;5071010;28;20116;-60
2021/08/24 04:39:22;;;;;;;4.55;1.40;;;14.70;99.90;;;;;;5070558;28;20029;-60
2021/08/24 04:41:48;;;;;;;6.60;1.75;;;14.60;99.90;;;;;;5071699;28;20025;-61
2021/08/24 04:44:14;;;;;;;8.30;1.98;;;14.60;99.90;;;;;;5070722;28;20108;-61
2021/08/24 04:46:40;;;;;;;6.78;2.05;;;14.60;99.90;;;;;;5069826;28;20446;-67
2021/08/24 04:49:05;;;;;;;7.25;1.98;;;15.20;99.90;;;;;;5071643;28;20028;-63
2021/08/24 04:51:31;;;;;;;9.45;2.58;;;15.50;99.90;;;;;;5068455;28;20446;-64
2021/08/24 04:53:57;;;;;;;3.20;2.00;;;15.70;99.90;;;;;;5069601;28;20033;-62
2021/08/24 04:56:22;;;;;;;5.88;1.85;;;15.90;99.90;;;;;;5071050;28;20033;-65
2021/08/24 04:58:48;;;;;;;2.90;1.45;;;15.90;99.90;;;;;;5070441;28;20173;-63
2021/08/24 05:01:13;;;;;;;5.65;1.95;;;16.00;99.90;;;;;;5069519;28;20454;-63
2021/08/24 05:03:39;;;;;;;2.78;1.33;;;16.20;99.90;;;;;;5070593;28;20020;-64
2021/08/24 05:06:05;;;;;;;3.38;1.20;;;16.10;99.90;;;;;;5087664;28;20036;-48
2021/08/24 05:08:30;;;;;;;11.82;1.95;;;15.70;99.90;;;;;;5090628;28;20448;-55
2021/08/24 05:10:56;;;;;;;5.20;1.90;;;16.10;99.90;;;;;;5089648;28;20038;-47
2021/08/24 05:13:22;;;;;;;6.18;1.77;;;16.40;99.90;;;;;;5083338;28;20032;-48
2021/08/24 05:15:48;;;;;;;7.30;1.63;;;16.50;99.90;;;;;;5089889;28;20556;-48
2021/08/24 05:18:14;;;;;;;4.53;1.73;;;16.70;99.90;;;;;;5090844;28;20103;-48
2021/08/24 05:20:39;;;;;;;5.28;2.33;;;16.60;99.90;;;;;;5089186;28;20028;-50
2021/08/24 05:23:05;;;;;;;4.45;1.42;;;16.70;99.90;;;;;;5089371;28;20493;-48
2021/08/24 05:25:31;;;;;;;4.25;1.40;;;16.80;99.90;;;;;;5090755;28;20028;-59
2021/08/24 05:27:57;;;;;;;7.07;1.58;;;17.20;99.90;;;;;;5090112;28;20151;-49
2021/08/24 05:30:25;;;;;;;6.30;1.38;;;17.60;99.90;;;;;;5091852;28;20402;-50
2021/08/24 05:32:52;;;;;;;3.38;1.50;;;17.90;99.90;;;;;;5090762;28;20046;-49
2021/08/24 05:35:19;;;;;;;4.88;1.98;;;17.80;99.90;;;;;;5089109;28;20404;-52
2021/08/24 05:37:45;;;;;;;4.60;1.50;;;18.00;99.90;;;;;;5080375;28;20444;-50
2021/08/24 05:40:11;;;;;;;3.42;1.60;;;18.10;99.90;;;;;;5088866;28;20483;-50
2021/08/24 05:42:38;;;;;;;6.30;1.60;;;18.30;99.90;;;;;;5086827;28;20016;-48
2021/08/24 05:45:05;;;;;;;3.08;1.35;;;18.00;99.90;;;;;;5089577;28;20098;-49
2021/08/24 05:47:31;;;;;;;2.60;1.65;;;18.10;99.90;;;;;;5088842;28;20115;-50
2021/08/24 05:49:59;;;;;;;7.75;1.23;;;18.20;99.90;;;;;;5089857;28;20115;-49
2021/08/24 05:52:25;;;;;;;10.38;1.95;;;18.00;99.90;;;;;;5088253;28;20422;-50
2021/08/24 05:54:51;;;;;;;10.68;2.45;;;18.10;99.90;;;;;;5087640;28;20036;-49
2021/08/24 05:57:17;;;;;;;13.95;3.72;;;18.20;99.90;;;;;;5087920;28;20081;-51
2021/08/24 05:59:43;;;;;;;6.75;2.05;;;18.30;99.90;;;;;;5070900;28;20032;-50
2021/08/24 06:02:08;;;;;;;5.72;1.98;;;18.00;99.90;;;;;;5089807;28;20052;-50
2021/08/24 06:04:34;;;;;;;6.38;2.22;;;17.90;99.90;;;;;;5090789;28;20028;-49
2021/08/24 06:07:00;;;;;;;4.43;1.50;;;18.00;99.90;;;;;;5089682;28;20142;-50
2021/08/24 06:09:26;;;;;;;5.05;1.58;;;18.10;99.90;;;;;;5090456;28;20059;-50
2021/08/24 06:11:52;;;;;;;4.78;1.42;;;18.30;99.90;;;;;;5089976;28;20035;-50
2021/08/24 06:14:20;;;;;;;2.90;1.55;;;18.10;99.90;;;;;;5090530;28;20070;-49
2021/08/24 06:16:47;;;;;;;2.92;1.50;;;18.10;99.90;;;;;;5088133;28;20111;-50
2021/08/24 06:19:13;;;;;;;6.28;1.95;;;18.10;99.90;;;;;;5089160;28;20020;-49
2021/08/24 06:21:39;;;;;;;3.22;1.58;;;18.00;99.90;;;;;;5089424;28;20422;-48
2021/08/24 06:24:06;;;;;;;4.88;1.50;;;17.90;99.90;;;;;;5090330;28;20093;-50
2021/08/24 06:26:32;;;;;;;2.58;1.10;;;18.10;99.90;;;;;;5089386;28;20103;-50
2021/08/24 06:28:58;;;;;;;4.68;1.60;;;18.50;99.90;;;;;;5090368;28;20048;-50
2021/08/24 06:31:27;;;;;;;5.53;1.25;;;18.40;99.90;;;;;;5090244;28;20509;-50
2021/08/24 06:33:54;;;;;;;7.30;2.55;;;18.40;99.90;;;;;;5089610;28;20024;-50
2021/08/24 06:36:20;;;;;;;4.30;1.30;;;18.60;99.90;;;;;;5090194;28;20176;-49
2021/08/24 06:38:47;;;;;;;4.18;1.55;;;18.90;99.90;;;;;;5089771;28;20028;-50
2021/08/24 06:41:15;;;;;;;2.28;1.45;;;18.90;99.90;;;;;;5089997;28;20024;-50
2021/08/24 06:43:40;;;;;;;6.05;1.85;;;19.10;99.90;;;;;;5087199;28;20020;-49
2021/08/24 06:46:06;;;;;;;8.23;2.83;;;18.90;99.90;;;;;;5089058;28;20024;-50
2021/08/24 06:48:32;;;;;;;2.78;1.55;;;18.80;99.90;;;;;;5087445;28;20028;-59
2021/08/24 06:50:58;;;;;;;5.20;1.75;;;18.80;99.90;;;;;;5088394;28;20036;-52
2021/08/24 06:53:23;;;;;;;5.30;1.85;;;18.80;99.90;;;;;;5088632;28;20036;-54
2021/08/24 06:55:49;;;;;;;3.22;1.75;;;19.10;99.90;;;;;;5088081;28;20024;-51
2021/08/24 06:58:15;;;;;;;3.10;1.70;;;18.90;99.90;;;;;;5085047;28;20028;-50
2021/08/24 07:00:43;;;;;;;5.03;2.00;;;18.90;99.90;;;;;;5068008;28;20039;-50
2021/08/24 07:03:09;;;;;;;7.25;1.58;;;19.10;99.90;;;;;;5077459;28;20458;-54
2021/08/24 07:05:39;;;;;;;3.40;1.42;;;19.30;99.90;;;;;;5087943;28;20032;-51
2021/08/24 07:08:05;;;;;;;3.80;1.15;;;19.40;99.90;;;;;;5087280;28;20149;-51
2021/08/24 07:10:30;;;;;;;2.45;1.17;;;19.70;99.90;;;;;;5088706;28;20131;-51
2021/08/24 07:12:56;;;;;;;4.80;1.15;;;20.00;99.90;;;;;;5078840;28;20059;-51
2021/08/24 07:15:23;;;;;;;3.10;1.40;;;20.00;99.90;;;;;;5088951;28;20063;-51
2021/08/24 07:17:53;;;;;;;5.13;1.35;;;19.90;99.90;;;;;;5088150;28;20043;-53
2021/08/24 07:20:19;;;;;;;2.60;1.98;;;20.10;99.70;;;;;;5088114;28;20078;-50
2021/08/24 07:22:46;;;;;;;6.15;1.20;;;20.00;99.90;;;;;;5087753;28;20193;-51
2021/08/24 07:25:17;;;;;;;5.28;1.10;;;20.10;99.90;;;;;;5087447;28;20457;-53
2021/08/24 07:27:42;;;;;;;3.55;1.30;;;20.10;99.80;;;;;;5089551;28;20046;-50
2021/08/24 07:30:09;;;;;;;2.70;1.50;;;20.20;99.40;;;;;;5090549;28;20024;-51
2021/08/24 07:32:34;;;;;;;8.27;1.63;;;20.10;99.20;;;;;;5088464;28;20028;-51
2021/08/24 07:35:01;;;;;;;9.93;1.80;;;20.10;99.70;;;;;;5089445;28;20081;-62
2021/08/24 07:37:26;;;;;;;1.95;1.13;;;20.20;98.40;;;;;;5092844;28;20115;-65
2021/08/24 07:39:52;;;;;;;2.08;1.20;;;19.70;98.90;;;;;;5092962;28;20266;-61
2021/08/24 07:42:18;;;;;;;2.47;1.48;;;19.90;99.10;;;;;;5093698;28;20028;-62
2021/08/24 07:44:43;;;;;;;2.42;1.52;;;19.70;99.70;;;;;;5091708;28;20039;-61
2021/08/24 07:47:10;;;;;;;4.50;1.70;;;20.10;99.50;;;;;;5092788;28;20079;-61
2021/08/24 07:49:38;;;;;;;2.70;1.33;;;20.00;99.30;;;;;;5092734;28;20089;-62
2021/08/24 07:52:07;;;;;;;6.07;1.60;;;20.10;98.60;;;;;;5092404;28;20039;-61
2021/08/24 07:54:34;;;;;;;6.07;1.17;;;20.30;98.60;;;;;;5092909;28;20422;-61
2021/08/24 07:56:59;;;;;;;2.45;1.35;;;20.30;98.60;;;;;;5093843;28;20028;-60
2021/08/24 07:59:25;;;;;;;2.40;1.33;;;20.30;98.60;;;;;;5093375;28;20032;-61
2021/08/24 08:01:54;;;;;;;3.65;1.02;;;20.60;98.40;;;;;;5092534;28;20100;-61
2021/08/24 08:04:22;;;;;;;2.20;1.15;;;20.90;97.90;;;;;;5093401;28;20066;-60
2021/08/24 08:06:48;;;;;;;7.82;1.52;;;21.00;97.80;;;;;;5092205;28;20472;-60
2021/08/24 08:09:14;;;;;;;3.72;1.30;;;21.00;97.10;;;;;;5093347;28;20047;-60
2021/08/24 08:11:40;;;;;;;3.00;0.80;;;21.00;97.00;;;;;;5091140;28;20453;-60
2021/08/24 08:14:06;;;;;;;2.92;1.20;;;21.10;96.50;;;;;;5091713;28;20114;-60
2021/08/24 08:16:33;;;;;;;2.97;1.42;;;20.90;96.70;;;;;;5091530;28;20123;-60
2021/08/24 08:18:59;;;;;;;2.83;1.05;;;21.00;96.20;;;;;;5092515;28;20020;-61
2021/08/24 08:21:25;;;;;;;3.50;1.45;;;21.20;95.80;;;;;;5092276;28;20461;-60
2021/08/24 08:23:51;;;;;;;3.22;1.77;;;21.20;96.00;;;;;;5091944;28;20477;-61
2021/08/24 08:26:17;;;;;;;5.57;1.38;;;21.00;96.10;;;;;;5092615;28;20047;-61
2021/08/24 08:28:42;;;;;;;2.13;1.13;;;21.20;96.40;;;;;;5091671;28;20434;-61
2021/08/24 08:31:12;;;;;;;4.20;1.05;;;21.30;96.10;;;;;;5091114;28;20053;-63
2021/08/24 08:33:37;;;;;;;3.72;1.15;;;21.50;95.60;;;;;;5091874;28;20368;-62
2021/08/24 08:36:03;;;;;;;2.97;1.23;;;21.30;95.40;;;;;;5091432;28;20030;-61
2021/08/24 08:38:29;;;;;;;1.67;1.00;;;21.40;95.70;;;;;;5092519;28;20341;-61
2021/08/24 08:41:01;;;;;;;3.97;1.48;;;21.80;95.90;;;;;;5091406;28;20052;-61
2021/08/24 08:43:55;;;;;;;1.88;1.20;;;21.80;95.60;;;;;;5091491;28;20103;-61
2021/08/24 08:46:42;;;;;;;2.90;1.48;;;22.00;95.60;;;;;;5091128;28;20077;-61
2021/08/24 08:49:35;;;;;;;4.80;1.95;;;22.10;95.70;;;;;;5091043;28;20448;-62
2021/08/24 08:52:40;;;;;;;5.03;1.00;;;22.50;95.70;;;;;;5089320;28;20043;-61
2021/08/24 08:55:20;;;;;;;4.78;1.60;;;22.90;94.70;;;;;;5072898;28;20028;-61
2021/08/24 08:58:01;;;;;;;2.13;1.20;;;23.20;94.20;;;;;;5072183;28;20074;-61
2021/08/24 09:00:49;;;;;;;2.40;1.20;;;23.30;94.50;;;;;;5089424;28;20156;-61
2021/08/24 09:03:27;;;;;;;5.35;1.70;;;23.40;93.70;;;;;;5089832;28;20472;-61
2021/08/24 09:05:54;;;;;;;2.90;1.20;;;23.20;93.80;;;;;;5088428;28;20133;-62
2021/08/24 09:08:22;;;;;;;2.55;0.88;;;22.90;94.30;;;;;;5072219;28;20032;-61
2021/08/24 09:10:51;;;;;;;4.70;1.20;;;22.90;94.00;;;;;;5088701;28;20589;-61
2021/08/24 09:13:36;;;;;;;2.72;1.58;;;23.00;94.50;;;;;;5088977;28;20032;-61
2021/08/24 09:16:17;;;;;;;5.40;1.08;;;23.30;94.20;;;;;;5088747;28;20024;-61
2021/08/24 09:18:59;;;;;;;2.65;1.17;;;23.40;94.00;;;;;;5088588;28;20494;-61
2021/08/24 09:21:36;;;;;;;3.30;1.27;;;23.80;94.10;;;;;;5072031;28;20096;-62
2021/08/24 09:24:15;;;;;;;2.65;1.55;;;24.20;93.30;;;;;;5090383;28;20131;-61
2021/08/24 09:27:05;;;;;;;3.10;1.48;;;24.10;93.10;;;;;;5089636;28;20032;-62
2021/08/24 09:29:40;;;;;;;3.25;1.67;;;23.70;93.30;;;;;;5089760;28;20469;-60
2021/08/24 09:32:07;;;;;;;7.07;2.78;;;24.10;93.40;;;;;;5089966;28;20056;-60
2021/08/24 09:34:44;;;;;;;3.78;1.30;;;23.60;93.20;;;;;;5089973;28;20050;-61
2021/08/24 09:37:15;;;;;;;4.95;1.60;;;23.60;93.70;;;;;;5091552;28;20034;-61
2021/08/24 09:39:53;;;;;;;3.50;1.45;;;23.70;93.70;;;;;;5091124;28;20102;-63
2021/08/24 09:42:37;;;;;;;6.22;2.13;;;24.30;93.70;;;;;;5089947;28;20054;-62
2021/08/24 09:45:28;;;;;;;3.85;1.50;;;24.70;92.80;;;;;;5089104;28;20036;-61
2021/08/24 09:47:59;;;;;;;;;;;24.60;92.40;;;;;;5090824;28;20055;-62
2021/08/24 09:50:32;;;;;;;3.55;1.83;;;24.60;92.30;;;;;;5089297;28;19995;-62
2021/08/24 09:52:59;;;;;;;14.43;2.15;;;24.70;92.60;;;;;;5090636;28;20032;-60
2021/08/24 09:55:27;;;;;;;3.10;1.42;;;24.90;92.20;;;;;;5089649;28;20114;-61
2021/08/24 09:58:00;;;;;;;3.70;1.20;;;25.00;91.80;;;;;;5088468;28;20032;-61
2021/08/24 10:00:39;;;;;;;3.13;1.80;;;25.00;91.50;;;;;;5088908;28;20465;-61
2021/08/24 10:03:39;;;;;;;2.78;1.80;;;24.90;91.70;;;;;;5088891;28;20150;-60
2021/08/24 10:06:24;;;;;;;7.05;2.70;;;24.80;91.40;;;;;;5089024;28;20047;-60
2021/08/24 10:08:55;;;;;;;4.35;1.50;;;24.60;91.40;;;;;;5090148;28;20028;-61
2021/08/24 10:11:32;;;;;;;9.70;1.70;;;24.70;91.70;;;;;;5088854;28;20361;-61
2021/08/24 10:14:29;;;;;;;4.28;1.70;;;24.70;91.40;;;;;;5089609;28;20024;-61
2021/08/24 10:16:58;;;;;;;7.38;2.38;;;25.10;91.30;;;;;;5044814;28;20462;-61
2021/08/24 10:19:28;;;;;;;5.25;1.42;;;25.20;91.50;;;;;;5088933;28;20209;-62
2021/08/24 10:21:55;;;;;;;9.50;2.22;;;25.50;91.30;;;;;;5088299;28;20056;-61
2021/08/24 10:24:26;;;;;;;2.17;1.20;;;25.70;91.50;;;;;;5088902;28;20334;-61
2021/08/24 10:26:56;;;;;;;3.17;1.85;;;25.80;90.90;;;;;;5090286;28;20492;-62
2021/08/24 10:29:27;;;;;;;5.53;1.75;;;25.80;90.50;;;;;;5090579;28;20054;-61
2021/08/24 10:31:58;;;;;;;2.08;1.15;;;25.70;90.30;;;;;;5089978;28;20024;-61
2021/08/24 10:34:27;;;;;;;3.45;1.50;;;25.80;90.30;;;;;;5089320;28;20024;-60
2021/08/24 10:37:11;;;;;;;2.45;1.67;;;25.10;91.00;;;;;;5089777;28;20115;-60
2021/08/24 10:39:37;;;;;;;6.78;1.95;;;25.40;91.20;;;;;;5090580;28;20094;-61
2021/08/24 10:42:03;;;;;;;3.45;1.30;;;25.60;90.40;;;;;;5089463;28;20067;-60
2021/08/24 10:44:40;;;;;;;1.60;1.38;;;25.60;90.70;;;;;;5088751;28;20091;-61
2021/08/24 10:47:48;;;;;;;3.10;1.45;;;25.50;90.90;;;;;;5088208;28;20068;-60
2021/08/24 10:50:35;;;;;;;3.83;2.08;;;25.00;91.30;;;;;;5088323;28;20051;-61
2021/08/24 10:53:09;;;;;;;4.25;1.65;;;24.40;91.90;;;;;;5089858;28;20043;-61
2021/08/24 10:55:40;;;;;;;3.40;1.30;;;24.60;92.40;;;;;;5090219;28;20020;-61
2021/08/24 10:58:28;;;;;;;5.30;1.85;;;24.70;92.10;;;;;;5088031;28;20054;-60
2021/08/24 11:01:01;;;;;;;2.22;1.50;;;25.00;91.90;;;;;;5087715;28;20020;-61
2021/08/24 11:04:03;;;;;;;3.92;2.15;;;25.40;91.80;;;;;;5090199;28;20093;-61
2021/08/24 11:06:40;;;;;;;2.28;1.65;;;25.50;90.80;;;;;;5089950;28;20043;-61
2021/08/24 11:09:09;;;;;;;2.83;1.35;;;25.30;91.30;;;;;;5089733;28;20036;-61
2021/08/24 11:11:53;;;;;;;7.07;1.98;;;25.40;91.10;;;;;;5091857;28;20458;-62
2021/08/24 11:14:32;;;;;;;2.00;1.45;;;25.40;90.80;;;;;;5092583;28;20068;-61
2021/08/24 11:17:19;;;;;;;5.65;1.52;;;25.40;90.90;;;;;;5092914;28;20555;-61
2021/08/24 11:20:05;;;;;;;4.68;1.98;;;25.30;90.90;;;;;;5093354;28;20025;-61
2021/08/24 11:22:38;;;;;;;2.65;1.50;;;25.40;90.70;;;;;;5093313;28;20131;-62
2021/08/24 11:25:10;;;;;;;2.42;1.63;;;25.20;90.30;;;;;;5091722;28;20028;-63
2021/08/24 11:28:04;;;;;;;2.92;1.73;;;24.80;91.00;;;;;;5092054;28;20449;-61
2021/08/24 11:30:44;;;;;;;5.60;2.00;;;24.20;91.80;;;;;;5089940;28;20044;-64
2021/08/24 11:33:31;;;;;;;1.92;1.48;;;24.20;92.10;;;;;;5090394;28;20078;-62
2021/08/24 11:36:26;;;;;;;2.40;1.55;;;24.00;92.50;;;;;;5089829;28;20114;-62
2021/08/24 11:39:09;;;;;;;3.15;1.75;;;23.60;92.50;;;;;;5087499;28;20148;-62
2021/08/24 11:41:39;;;;;;;6.07;1.83;;;23.40;93.00;;;;;;5088237;28;20089;-62
2021/08/24 11:44:25;;;;;;;2.10;1.55;;;23.10;93.30;;;;;;5089436;28;20024;-61
2021/08/24 11:47:08;;;;;;;4.82;1.92;;;22.80;93.80;;;;;;5088107;28;20047;-63
2021/08/24 11:49:54;;;;;;;2.92;1.70;;;22.60;93.90;;;;;;5087996;28;20052;-61
2021/08/24 11:52:31;;;;;;;2.88;1.83;;;22.40;94.70;;;;;;5089734;28;20490;-62
2021/08/24 11:55:25;;;;;;;2.33;1.63;;;22.40;94.40;;;;;;5088755;28;20039;-62
2021/08/24 11:58:07;;;;;;;6.95;2.63;;;22.30;94.70;;;;;;5087245;28;20059;-64
2021/08/24 12:00:33;;;;;;;3.30;1.60;;;22.30;94.60;;;;;;5090300;28;20524;-61
2021/08/24 12:03:02;;;;;;;5.78;1.77;;;22.20;94.80;;;;;;5090427;28;20020;-60
2021/08/24 12:05:34;;;;;;;3.90;1.90;;;22.20;95.30;;;;;;5091240;28;20020;-61
2021/08/24 12:08:04;;;;;;;4.85;1.98;;;22.10;95.00;;;;;;5090974;28;20024;-60
2021/08/24 12:11:01;;;;;;;2.13;1.73;;;22.10;95.20;;;;;;5090540;28;20027;-61
2021/08/24 12:13:33;;;;;;;4.03;2.60;;;22.10;95.30;;;;;;5079662;28;20046;-62
2021/08/24 12:16:25;;;;;;;6.35;3.95;;;22.10;94.90;;;;;;5090127;28;20088;-60
2021/08/24 12:18:51;;;;;;;;;;;21.90;95.00;;;;;;5089126;28;20038;-61
2021/08/24 12:21:30;;;;;;;4.60;2.67;;;21.90;95.50;;;;;;5089225;28;19927;-61
2021/08/24 12:23:57;;;;;;;2.97;2.13;;;21.90;95.20;;;;;;5086989;28;20052;-61
2021/08/24 12:26:30;;;;;;;3.40;2.20;;;21.90;95.50;;;;;;5089502;28;20418;-62
2021/08/24 12:29:08;;;;;;;6.40;2.90;;;21.90;95.40;;;;;;5086973;28;20024;-62
2021/08/24 12:32:02;;;;;;;10.13;2.65;;;22.10;95.30;;;;;;5082896;28;20051;-62
2021/08/24 12:34:34;;;;;;;7.88;2.58;;;22.20;95.20;;;;;;5085662;28;20032;-61
2021/08/24 12:37:19;;;;;;;4.03;2.17;;;22.30;95.10;;;;;;5090055;28;20028;-61
2021/08/24 12:39:52;;;;;;;1.95;1.55;;;22.30;95.00;;;;;;5088831;28;20024;-61
2021/08/24 12:42:34;;;;;;;7.68;2.80;;;22.30;94.70;;;;;;5091909;28;20020;-60
2021/08/24 12:44:59;;;;;;;9.95;2.67;;;22.40;95.30;;;;;;5090785;28;20479;-61
2021/08/24 12:47:29;;;;;;;3.65;1.58;;;22.70;94.90;;;;;;5091230;28;20036;-60
2021/08/24 12:49:56;;;;;;;2.95;1.40;;;23.20;94.40;;;;;;5090974;28;20120;-61
2021/08/24 12:52:32;;;;;;;5.43;2.17;;;23.90;93.80;;;;;;5091462;28;20035;-62
2021/08/24 12:55:07;;;;;;;3.85;1.63;;;24.70;92.50;;;;;;5089774;28;20042;-61
2021/08/24 12:57:36;;;;;;;3.05;1.80;;;25.20;91.80;;;;;;5089878;28;20438;-61
2021/08/24 13:00:20;;;;;;;4.80;2.42;;;25.30;91.10;;;;;;5088663;28;20119;-61
2021/08/24 13:02:59;;;;;;;6.93;2.17;;;25.20;91.00;;;;;;5089882;28;20028;-61
2021/08/24 13:05:30;;;;;;;2.15;1.73;;;24.90;90.90;;;;;;5091245;28;20066;-61
2021/08/24 13:08:09;;;;;;;;;;;24.90;90.70;;;;;;5090489;28;20383;-61
2021/08/24 13:10:47;;;;;;;5.78;1.70;;;25.10;90.80;;;;;;5089502;28;19908;-61